CheckWX is a tool to help pilots better visualize weather data.  It is not intended as a substitute for an official pre-flight weather briefing.

21:34:46 UTC

KFAR TAF
Hector International Airport
Fargo, North Dakota, USA
KFAR 201739Z 2018/2118 34015KT P6SM SKC FM210300 26005KT P6SM SCT025 FM211500 29009KT P6SM FEW250

Mar-20@
18:00 UTC

Mar-20 @ 18:00 UTC

Mar-21@
03:00 UTC

Mar-21 @ 03:00 UTC

KFAR 201739Z 2018/2118 34015KT P6SM SKC
Wind
  • 340° at 15 KTS
Cloud Levels
  • Clear skies

Mar-21@
03:00 UTC

Mar-21 @ 03:00 UTC

Mar-21@
15:00 UTC

Mar-21 @ 15:00 UTC

FM210300 26005KT P6SM SCT025

From

From Standard forecast or significant change

Wind
  • 260° at 5 KTS
Cloud Levels
  • Scattered at 2,500' AGL

Mar-21@
15:00 UTC

Mar-21 @ 15:00 UTC

Mar-21@
18:00 UTC

Mar-21 @ 18:00 UTC

FM211500 29009KT P6SM FEW250

From

From Standard forecast or significant change

Wind
  • 290° at 9 KTS
Cloud Levels
  • Few at 25,000' AGL